Airport Name : Bradford Rgnl

Other Name : Bradford Rgnl

ICAO : KBFD

IATA : BFD

FAA : BFD

Latitude : 41.803067

Longitude : -78.640122

Country : United States

Local Date and Time : 1/22/2018 11:02:00 AM

 

TAF (Terminal Aerodrome Forecast)

KBFD 221352Z 2214/2312 15003KT 1SM BR OVC003 FM221600 17005KT 2SM BR OVC007 FM221800 18008KT P6SM FEW007 BKN015 OVC040 FM222100 17006KT P6SM SCT015 OVC050 FM230300 16009KT 4SM BR OVC050 WS020/20040KT

 

METAR (METeorological Aerodrome Report)

KBFD 221553Z AUTO 16005KT 1/4SM -RA FG VV002 08/08 A3001 RMK AO2 RAB45 SLP171 P0000 T00780078

KBFD 221524Z AUTO 16004KT 1/4SM FG OVC002 07/07 A3003 RMK AO2 T00720072

KBFD 221511Z AUTO 16004KT 1 3/4SM BR OVC003 07/07 A3003 RMK AO2 T00720072

KBFD 221453Z AUTO 15004KT 6SM BR OVC003 07/07 A3003 RMK AO2 RAB1357E17B23E30 SLP177 P0001 60003 T00720072 55001

KBFD 221436Z AUTO 16003KT 3SM BR OVC003 07/07 A3003 RMK AO2 RAB1357E17B23E30 P0001 T00720072

KBFD 221429Z AUTO 15004KT 2 1/2SM -RA BR OVC003 07/07 A3003 RMK AO2 VIS 2V3 RAB1357E17B23 P0001 T00720072

KBFD 221417Z AUTO 18005KT 3SM BR OVC003 07/07 A3003 RMK AO2 RAB1357E17 P0000 T00720067

KBFD 221353Z AUTO 17005KT 1 1/2SM BR OVC003 07/07 A3003 RMK AO2 VIS 3/4V3 RAE22 SLP177 P0002 T00670067

KBFD 221348Z AUTO 15004KT 1 1/4SM BR OVC003 07/07 A3003 RMK AO2 VIS 1/2V4 RAE22 P0002

KBFD 221333Z AUTO 15004KT 3/4SM BR OVC003 06/06 A3003 RMK AO2 RAE22 P0002 T00610061

KBFD 221309Z AUTO 14005KT 1/4SM -RA FG VV003 05/05 A3003 RMK AO2 P0002 T00500050

KBFD 221253Z AUTO 16003KT 1/4SM -RA FG VV002 05/05 A3003 RMK AO2 RAB29 SLP181 P0000 T00500050

KBFD 221221Z AUTO 13003KT 1/4SM FG VV002 04/04 A3003 RMK AO2 T00440044

KBFD 221212Z AUTO 14004KT 1/4SM FG VV003 04/04 A3003 RMK AO2 T00440044